This is the latest recevied weather packets stored in our database for station/object Krupka. If no packets are shown the sender has not sent any weather packets the latest 1 day(s).
| Time | Temp. | Humidity | Pressure | Rain* | Wind** | Luminosity | Snow |
|---|---|---|---|---|---|---|---|
| 1836274677 | 13.89° C | 82% | - | - | 0.89 m/s, 92° | - | - |
| 1836274527 | 12.78° C | 84% | - | - | 0.89 m/s, 74° | - | - |
| 1836274376 | 13.89° C | 82% | - | - | 0.89 m/s, 90° | - | - |
| 1836274227 | 12.78° C | 82% | - | - | 0.89 m/s, 89° | - | - |
| 1836274077 | 13.89° C | 82% | - | - | 0.89 m/s, 83° | - | - |
| 1778034006 | 7.78° C | 89% | - | - | 1.79 m/s, 267° | - | - |
| 1778033704 | 7.78° C | 89% | - | - | 1.79 m/s, 271° | - | - |
| 1778033404 | 7.78° C | 89% | - | - | 1.79 m/s, 283° | - | - |
| 1778033103 | 7.78° C | 89% | - | - | 1.79 m/s, 286° | - | - |
| 1778032803 | 7.78° C | 89% | - | - | 0.89 m/s, 281° | - | - |
| 1778032502 | 7.78° C | 89% | - | - | 0.89 m/s, 274° | - | - |
| 1778032211 | 7.78° C | 89% | - | - | 0.89 m/s, 260° | - | - |
| 1778031904 | 7.78° C | 89% | - | - | 0.89 m/s, 270° | - | - |
| 1778031603 | 7.78° C | 89% | - | - | 0.89 m/s, 252° | - | - |
| 1778031304 | 7.78° C | 89% | - | - | 1.79 m/s, 262° | - | - |
| 1778031004 | 7.78° C | 88% | - | - | 1.79 m/s, 272° | - | - |
| 1778030702 | 7.78° C | 89% | - | - | 1.79 m/s, 269° | - | - |
| 1778030403 | 7.78° C | 89% | - | - | 1.79 m/s, 264° | - | - |
| 1778030103 | 7.78° C | 89% | - | - | 1.79 m/s, 268° | - | - |
| 1778029803 | 7.78° C | 88% | - | - | 3.13 m/s, 268° | - | - |
| 1778029503 | 7.78° C | 88% | - | - | 3.13 m/s, 266° | - | - |
| 1778029203 | 7.78° C | 88% | - | - | 0.89 m/s, 262° | - | - |
| 1778028903 | 8.89° C | 88% | - | - | 3.13 m/s, 269° | - | - |
| 1778028603 | 7.78° C | 88% | - | - | 1.79 m/s, 250° | - | - |
| 1778028304 | 7.78° C | 88% | - | - | 1.79 m/s, 260° | - | - |
* Rain since midnight (hover to see other rain measurements)
** Current wind speed in m/s (hover to see current wind gust speed)